Honghai — XUBU8 — position and weather

sailwx.info

Track history (hours):
 
Tides and Currents Weather Stations Pressure Air Temp Water Temp Dewpoint Dewpoint Depression Visibility Wind Speed Wind Dir Waves Ship Positions

Honghai

Last reported at 2016-Feb-06 17:22 UTC. Time now 2016-Feb-11 13:04 UTC.
Position N 31°17' E 121°44'.

Length 72 m; draft 4 m.

Type: Cargo ship. MMSI: 515501000.

Date/timePositionNaut miles runAvg speedWind from/ knotsBaromVisibWave heightAir tempDewpointWater temp
2016-Feb-06 17:22N 31°17' E 121°44'8 9.9
2016-Feb-06 16:33N 31°22' E 121°36'6 5.4
2016-Feb-06 15:30N 31°22' E 121°30'0 0.0
2016-Feb-06 14:28N 31°22' E 121°30'0 0.0
2016-Feb-06 13:22N 31°22' E 121°30'0 0.0
2016-Feb-06 12:04N 31°22' E 121°30'0 0.0
2016-Feb-06 11:28N 31°22' E 121°30'0 0.0
2016-Feb-06 10:16N 31°22' E 121°30'0 0.0
2016-Feb-06 09:28N 31°22' E 121°30'0 0.0
2016-Feb-06 08:22N 31°22' E 121°30'0 0.0
2016-Feb-06 07:28N 31°22' E 121°30'0 0.0
2016-Feb-06 06:28N 31°22' E 121°30'0 0.2
2016-Feb-06 05:33N 31°22' E 121°30'0 0.1
2016-Feb-06 04:33N 31°22' E 121°30'0 0.0
2016-Feb-06 03:27N 31°22' E 121°30'0 0.1
2016-Feb-06 02:33N 31°22' E 121°30'0 0.1
2016-Feb-06 01:33N 31°22' E 121°30'0 0.1
2016-Feb-06 00:33N 31°22' E 121°30'0 0.0
2016-Feb-05 23:09N 31°22' E 121°30'0 0.0
2016-Feb-05 22:33N 31°22' E 121°30'0 0.0
2016-Feb-05 21:33N 31°22' E 121°30'0 0.1
2016-Feb-05 20:33N 31°22' E 121°30'0 0.0
2016-Feb-05 19:33N 31°22' E 121°30'3 2.9
2016-Feb-05 18:34N 31°24' E 121°32'2 2.1
2016-Feb-05 17:31N 31°23' E 121°35'4 3.9
2016-Feb-05 16:33N 31°21' E 121°39'2010.0
2016-Feb-05 14:29N 31°07' E 121°56'  
2016-Feb-01 23:13N 30°08' E 122°37'19 6.4
2016-Feb-01 20:13N 29°48' E 122°37'  
Track history (hours):
 
Tides and Currents Weather Stations Pressure Air Temp Water Temp Dewpoint Dewpoint Depression Visibility Wind Speed Wind Dir Waves Ship Positions

Honghai

Last reported at 2016-Feb-06 17:22 UTC. Time now 2016-Feb-11 13:04 UTC.
Position N 31°17' E 121°44'.

Length 72 m; draft 4 m.

Type: Cargo ship. MMSI: 515501000.

Date/timePositionNaut miles runAvg speedWind from/ knotsBaromVisibWave heightAir tempDewpointWater temp
2016-Feb-06 17:22N 31°17' E 121°44'8 9.9
2016-Feb-06 16:33N 31°22' E 121°36'6 5.4
2016-Feb-06 15:30N 31°22' E 121°30'0 0.0
2016-Feb-06 14:28N 31°22' E 121°30'0 0.0
2016-Feb-06 13:22N 31°22' E 121°30'0 0.0
2016-Feb-06 12:04N 31°22' E 121°30'0 0.0
2016-Feb-06 11:28N 31°22' E 121°30'0 0.0
2016-Feb-06 10:16N 31°22' E 121°30'0 0.0
2016-Feb-06 09:28N 31°22' E 121°30'0 0.0
2016-Feb-06 08:22N 31°22' E 121°30'0 0.0
2016-Feb-06 07:28N 31°22' E 121°30'0 0.0
2016-Feb-06 06:28N 31°22' E 121°30'0 0.2
2016-Feb-06 05:33N 31°22' E 121°30'0 0.1
2016-Feb-06 04:33N 31°22' E 121°30'0 0.0
2016-Feb-06 03:27N 31°22' E 121°30'0 0.1
2016-Feb-06 02:33N 31°22' E 121°30'0 0.1
2016-Feb-06 01:33N 31°22' E 121°30'0 0.1
2016-Feb-06 00:33N 31°22' E 121°30'0 0.0
2016-Feb-05 23:09N 31°22' E 121°30'0 0.0
2016-Feb-05 22:33N 31°22' E 121°30'0 0.0
2016-Feb-05 21:33N 31°22' E 121°30'0 0.1
2016-Feb-05 20:33N 31°22' E 121°30'0 0.0
2016-Feb-05 19:33N 31°22' E 121°30'3 2.9
2016-Feb-05 18:34N 31°24' E 121°32'2 2.1
2016-Feb-05 17:31N 31°23' E 121°35'4 3.9
2016-Feb-05 16:33N 31°21' E 121°39'2010.0
2016-Feb-05 14:29N 31°07' E 121°56'  
2016-Feb-01 23:13N 30°08' E 122°37'19 6.4
2016-Feb-01 20:13N 29°48' E 122°37'  

Dump ship's entire track history